createdAt,value
2023-03-03T00:00:46.354Z,0.53
2023-03-03T00:03:19.280Z,0.54
2023-03-03T00:05:49.571Z,0.61
2023-03-03T00:08:18.919Z,0.61
2023-03-03T00:10:47.695Z,0.45
2023-03-03T00:13:19.445Z,0.49
2023-03-03T00:15:48.162Z,0.40
2023-03-03T00:18:29.292Z,0.36
2023-03-03T00:21:01.444Z,0.43
2023-03-03T00:23:37.032Z,0.43
2023-03-03T00:26:18.004Z,0.59
2023-03-03T00:28:48.429Z,0.50
2023-03-03T00:31:20.111Z,0.62
2023-03-03T00:33:54.823Z,0.56
2023-03-03T00:36:32.650Z,0.48
2023-03-03T00:39:19.694Z,-0.15
2023-03-03T00:41:47.908Z,0.36
2023-03-03T00:44:43.569Z,0.22
2023-03-03T00:47:31.200Z,0.81
2023-03-03T00:50:35.076Z,-0.02
2023-03-03T00:53:13.098Z,0.06
2023-03-03T00:55:41.628Z,-0.01
2023-03-03T00:58:10.271Z,-0.04
2023-03-03T01:00:43.191Z,0.00
2023-03-03T01:03:17.161Z,-0.16
2023-03-03T01:06:11.804Z,-0.12
2023-03-03T01:08:41.409Z,-0.01
2023-03-03T01:11:13.266Z,-0.17
2023-03-03T01:13:45.680Z,-0.31
2023-03-03T01:16:13.978Z,-0.50
2023-03-03T01:18:42.580Z,-1.35
2023-03-03T01:21:12.386Z,-0.60
2023-03-03T01:23:41.901Z,-0.60
2023-03-03T01:26:10.651Z,-0.46
2023-03-03T01:28:40.316Z,-0.64
2023-03-03T01:31:08.974Z,-0.77
2023-03-03T01:33:38.084Z,-0.74
2023-03-03T01:36:09.283Z,-0.52
2023-03-03T01:38:37.876Z,-0.50
2023-03-03T01:41:08.215Z,-0.66
2023-03-03T01:43:36.478Z,-0.45
2023-03-03T01:46:53.469Z,-0.74
2023-03-03T01:49:26.956Z,-0.73
2023-03-03T01:51:59.706Z,-0.83
2023-03-03T01:54:32.279Z,-0.66
2023-03-03T01:57:06.669Z,-0.86
2023-03-03T01:59:39.086Z,-1.05
2023-03-03T02:02:07.704Z,-0.95
2023-03-03T02:04:36.749Z,-1.08
2023-03-03T02:07:11.009Z,-0.93
2023-03-03T02:09:51.958Z,-1.00
2023-03-03T02:12:28.282Z,-0.95
2023-03-03T02:14:56.542Z,-1.05
2023-03-03T02:17:24.968Z,-1.14
2023-03-03T02:20:01.108Z,-1.13
2023-03-03T02:22:39.789Z,-1.02
2023-03-03T02:25:13.083Z,-1.06
2023-03-03T02:27:42.687Z,-0.97
2023-03-03T02:30:16.938Z,-1.07
2023-03-03T02:32:45.534Z,-0.99
2023-03-03T02:35:32.108Z,-1.23
2023-03-03T02:38:11.190Z,-1.54
2023-03-03T02:40:46.737Z,-1.21
2023-03-03T02:43:20.347Z,-1.24
2023-03-03T02:45:48.650Z,-1.20
2023-03-03T02:48:16.881Z,-1.12
2023-03-03T02:50:46.018Z,-1.17
2023-03-03T02:53:14.664Z,-1.23
2023-03-03T02:55:43.034Z,-1.29
2023-03-03T02:58:11.358Z,-1.25
2023-03-03T03:00:41.060Z,-1.33
2023-03-03T03:03:09.406Z,-1.38
2023-03-03T03:05:39.957Z,-1.41
2023-03-03T03:08:08.538Z,-1.54
2023-03-03T03:10:37.631Z,-1.51
2023-03-03T03:13:07.050Z,-1.69
2023-03-03T03:15:37.245Z,-1.54
2023-03-03T03:18:07.514Z,-1.55
2023-03-03T03:20:40.048Z,-1.51
2023-03-03T03:23:09.188Z,-1.39
2023-03-03T03:25:42.668Z,-1.50
2023-03-03T03:28:11.100Z,-1.74
2023-03-03T03:30:39.786Z,-1.82
2023-03-03T03:33:10.203Z,-1.89
2023-03-03T03:35:40.518Z,-1.84
2023-03-03T03:38:09.138Z,-1.91
2023-03-03T03:40:37.392Z,-1.86
2023-03-03T03:43:06.811Z,-1.82
2023-03-03T03:45:35.260Z,-1.88
2023-03-03T03:48:05.402Z,-1.69
2023-03-03T03:50:35.433Z,-2.14
2023-03-03T03:53:03.709Z,-1.89
2023-03-03T03:55:32.637Z,-1.92
2023-03-03T03:58:01.208Z,-2.04
2023-03-03T04:00:54.608Z,-2.15
2023-03-03T04:03:23.445Z,-2.15
2023-03-03T04:05:55.456Z,-2.19
2023-03-03T04:08:24.354Z,-2.19
2023-03-03T04:10:52.685Z,-2.18
2023-03-03T04:13:21.286Z,-2.15
2023-03-03T04:15:49.584Z,-2.05
2023-03-03T04:18:18.368Z,-1.99
2023-03-03T04:20:48.112Z,-2.05
2023-03-03T04:23:17.834Z,-1.92
2023-03-03T04:25:47.990Z,-1.97
2023-03-03T04:28:18.204Z,-2.06
2023-03-03T04:30:47.133Z,-2.08
2023-03-03T04:33:18.073Z,-2.22
2023-03-03T04:35:48.185Z,-2.20
2023-03-03T04:38:18.218Z,-2.19
2023-03-03T04:40:48.210Z,-2.26
2023-03-03T04:43:17.660Z,-2.28
2023-03-03T04:45:46.172Z,-2.36
2023-03-03T04:48:14.679Z,-2.36
2023-03-03T04:50:43.539Z,-2.40
2023-03-03T04:53:12.015Z,-2.38
2023-03-03T04:55:43.992Z,-2.33
2023-03-03T04:58:12.535Z,-2.52
2023-03-03T05:00:41.614Z,-2.54
2023-03-03T05:03:13.342Z,-2.69
2023-03-03T05:05:43.375Z,-2.69
2023-03-03T05:08:11.583Z,-2.75
2023-03-03T05:10:39.991Z,-2.76
2023-03-03T05:13:10.216Z,-2.75
2023-03-03T05:15:38.553Z,-2.78
2023-03-03T05:18:06.974Z,-2.74
2023-03-03T05:20:35.287Z,-2.78
2023-03-03T05:23:03.554Z,-2.84
2023-03-03T05:25:31.817Z,-2.83
2023-03-03T05:28:04.819Z,-3.47
2023-03-03T05:30:34.507Z,-2.95
2023-03-03T05:33:02.749Z,-2.76
2023-03-03T05:35:31.007Z,-2.71
2023-03-03T05:37:59.457Z,-2.83
2023-03-03T05:40:28.847Z,-2.82
2023-03-03T05:42:57.077Z,-3.62
2023-03-03T05:45:26.022Z,-2.92
2023-03-03T05:47:56.004Z,-3.20
2023-03-03T05:50:25.228Z,-2.92
2023-03-03T05:52:54.104Z,-2.84
2023-03-03T05:55:22.391Z,-3.01
2023-03-03T05:57:50.615Z,-2.98
2023-03-03T06:00:20.385Z,-2.95
2023-03-03T06:02:48.788Z,-3.01
2023-03-03T06:05:18.618Z,-3.11
2023-03-03T06:07:46.832Z,-3.08
2023-03-03T06:10:15.136Z,-2.90
2023-03-03T06:12:47.315Z,-3.01
2023-03-03T06:15:18.290Z,-3.20
2023-03-03T06:17:46.606Z,-3.09
2023-03-03T06:20:14.932Z,-2.90
2023-03-03T06:22:44.568Z,-3.26
2023-03-03T06:25:12.877Z,-2.86
2023-03-03T06:27:41.492Z,-3.00
2023-03-03T06:30:12.914Z,-3.90
2023-03-03T06:32:41.312Z,-3.15
2023-03-03T06:35:09.947Z,-3.07
2023-03-03T06:37:38.227Z,-3.14
2023-03-03T06:40:09.851Z,-3.12
2023-03-03T06:42:38.158Z,-3.17
2023-03-03T06:45:07.587Z,-3.05
2023-03-03T06:47:35.836Z,-3.06
2023-03-03T06:50:04.180Z,-2.93
2023-03-03T06:52:32.434Z,-3.08
2023-03-03T06:55:03.933Z,-2.86
2023-03-03T06:57:34.864Z,-2.78
2023-03-03T07:00:17.059Z,-2.84
2023-03-03T07:02:45.489Z,-2.56
2023-03-03T07:05:17.860Z,-2.63
2023-03-03T07:07:46.333Z,-2.51
2023-03-03T07:10:23.969Z,-2.47
2023-03-03T07:12:53.754Z,-3.41
2023-03-03T07:15:25.054Z,-2.36
2023-03-03T07:17:59.731Z,-2.27
2023-03-03T07:20:35.225Z,-2.22
2023-03-03T07:23:19.335Z,-2.11
2023-03-03T07:25:48.621Z,-1.57
2023-03-03T07:28:25.203Z,-2.05
2023-03-03T07:30:53.940Z,-2.03
2023-03-03T07:33:28.921Z,-1.83
2023-03-03T07:35:59.466Z,-1.71
2023-03-03T07:38:36.114Z,-1.74
2023-03-03T07:41:07.251Z,-1.45
2023-03-03T07:43:44.873Z,-1.33
2023-03-03T07:46:27.779Z,-1.15
2023-03-03T07:48:59.014Z,-1.32
2023-03-03T07:51:29.805Z,-1.36
2023-03-03T07:54:22.352Z,-1.50
2023-03-03T07:56:50.629Z,-1.45
2023-03-03T07:59:24.229Z,-1.23
2023-03-03T08:02:00.572Z,-1.12
2023-03-03T08:04:35.620Z,-0.95
2023-03-03T08:07:04.915Z,-0.86
2023-03-03T08:09:51.096Z,-0.75
2023-03-03T08:12:42.100Z,-0.55
2023-03-03T08:15:23.864Z,-0.29
2023-03-03T08:17:54.275Z,-0.05
2023-03-03T08:20:50.984Z,-0.07
2023-03-03T08:23:21.710Z,0.11
2023-03-03T08:25:52.351Z,0.31
2023-03-03T08:28:22.132Z,0.36
2023-03-03T08:31:02.583Z,0.37
2023-03-03T08:33:37.361Z,0.49
2023-03-03T08:36:07.640Z,0.73
2023-03-03T08:38:35.963Z,0.73
2023-03-03T08:41:04.674Z,0.72
2023-03-03T08:43:33.227Z,0.96
2023-03-03T08:46:05.568Z,0.97
2023-03-03T08:48:34.778Z,1.01
2023-03-03T08:51:03.209Z,1.07
2023-03-03T08:53:33.648Z,1.13
2023-03-03T08:56:01.904Z,1.18
2023-03-03T08:58:35.632Z,1.18
2023-03-03T09:01:06.410Z,1.20
2023-03-03T09:03:34.853Z,1.26
2023-03-03T09:06:13.477Z,1.47
2023-03-03T09:08:41.749Z,1.61
2023-03-03T09:11:13.642Z,1.50
2023-03-03T09:13:41.992Z,1.66
2023-03-03T09:16:16.775Z,1.83
2023-03-03T09:18:45.690Z,2.03
2023-03-03T09:21:24.770Z,2.05
2023-03-03T09:23:57.183Z,2.02
2023-03-03T09:26:30.482Z,2.13
2023-03-03T09:29:26.310Z,2.12
2023-03-03T09:31:57.500Z,2.29
2023-03-03T09:34:33.845Z,2.47
2023-03-03T09:37:02.088Z,2.49
2023-03-03T09:39:32.608Z,2.88
2023-03-03T09:42:32.358Z,2.93
2023-03-03T09:45:30.455Z,3.17
2023-03-03T09:48:20.386Z,2.94
2023-03-03T09:51:03.375Z,3.10
2023-03-03T09:53:53.671Z,3.33
2023-03-03T09:56:31.412Z,3.20
2023-03-03T09:59:19.483Z,3.67
2023-03-03T10:02:00.366Z,3.81
2023-03-03T10:05:19.972Z,3.69
2023-03-03T10:08:36.247Z,4.00
2023-03-03T10:11:18.060Z,3.94
2023-03-03T10:14:05.293Z,4.31
2023-03-03T10:16:54.967Z,4.69
2023-03-03T10:19:38.896Z,4.80
2023-03-03T10:22:24.121Z,4.71
2023-03-03T10:25:10.137Z,5.00
2023-03-03T10:27:53.596Z,5.17
2023-03-03T10:30:44.069Z,5.22
2023-03-03T10:33:26.578Z,5.34
2023-03-03T10:36:13.498Z,5.51
2023-03-03T10:38:56.415Z,5.35
2023-03-03T10:41:43.324Z,5.32
2023-03-03T10:44:37.291Z,5.42
2023-03-03T10:47:47.082Z,5.40
2023-03-03T10:50:22.707Z,5.39
2023-03-03T10:52:56.262Z,5.45
2023-03-03T10:55:43.689Z,5.38
2023-03-03T10:58:33.771Z,5.37
2023-03-03T11:01:12.644Z,5.35
2023-03-03T11:04:11.913Z,5.63
2023-03-03T11:06:47.621Z,5.84
2023-03-03T11:09:37.742Z,6.05
2023-03-03T11:12:22.641Z,6.06
2023-03-03T11:15:01.383Z,6.07
2023-03-03T11:17:47.049Z,6.11
2023-03-03T11:20:31.203Z,6.28
2023-03-03T11:23:18.498Z,6.40
2023-03-03T11:25:53.202Z,6.71
2023-03-03T11:28:44.492Z,7.16
2023-03-03T11:31:21.613Z,7.40
2023-03-03T11:34:01.217Z,7.66
2023-03-03T11:36:35.306Z,8.13
2023-03-03T11:39:06.404Z,8.19
2023-03-03T11:41:39.468Z,8.24
2023-03-03T11:44:23.446Z,8.43
2023-03-03T11:46:55.419Z,8.23
2023-03-03T11:49:30.308Z,7.75
2023-03-03T11:52:15.839Z,8.60
2023-03-03T11:54:53.510Z,8.90
2023-03-03T11:57:29.015Z,8.46
2023-03-03T12:00:09.694Z,8.62
2023-03-03T12:03:18.025Z,8.69
2023-03-03T12:06:01.483Z,8.73
2023-03-03T12:08:56.459Z,8.98
2023-03-03T12:11:28.854Z,9.36
2023-03-03T12:14:04.174Z,9.76
2023-03-03T12:16:48.641Z,9.77
2023-03-03T12:19:45.270Z,9.85
2023-03-03T12:22:30.670Z,10.00
2023-03-03T12:25:25.054Z,9.58
2023-03-03T12:28:01.492Z,9.98
2023-03-03T12:31:10.903Z,10.21
2023-03-03T12:33:54.148Z,10.12
2023-03-03T12:36:38.087Z,10.26
2023-03-03T12:39:17.702Z,9.34
2023-03-03T12:42:03.840Z,10.03
2023-03-03T12:44:41.486Z,9.97
2023-03-03T12:47:22.916Z,10.05
2023-03-03T12:50:08.412Z,10.02
2023-03-03T12:52:48.241Z,10.56
2023-03-03T12:55:27.885Z,10.41
2023-03-03T12:58:05.638Z,10.74
2023-03-03T13:00:52.351Z,10.12
2023-03-03T13:03:53.145Z,10.28
2023-03-03T13:06:31.259Z,10.49
2023-03-03T13:09:24.364Z,10.44
2023-03-03T13:12:32.154Z,10.84
2023-03-03T13:15:17.222Z,11.01
2023-03-03T13:18:01.017Z,11.09
2023-03-03T13:20:40.880Z,10.94
2023-03-03T13:23:23.842Z,10.40
2023-03-03T13:25:57.847Z,10.36
2023-03-03T13:28:34.901Z,10.34
2023-03-03T13:31:12.442Z,10.43
2023-03-03T13:33:49.050Z,10.67
2023-03-03T13:36:19.422Z,10.76
2023-03-03T13:38:53.475Z,11.35
2023-03-03T13:41:28.005Z,11.12
2023-03-03T13:44:02.223Z,10.40
2023-03-03T13:46:40.539Z,11.84
2023-03-03T13:49:36.807Z,11.18
2023-03-03T13:52:10.256Z,10.90
2023-03-03T13:55:01.010Z,12.05
2023-03-03T13:57:46.673Z,12.46
2023-03-03T14:00:27.875Z,12.31
2023-03-03T14:03:19.767Z,11.27
2023-03-03T14:05:51.280Z,11.51
2023-03-03T14:08:39.792Z,11.55
2023-03-03T14:11:15.217Z,11.93
2023-03-03T14:13:56.942Z,11.63
2023-03-03T14:16:44.961Z,11.81
2023-03-03T14:19:18.876Z,12.01
2023-03-03T14:22:00.369Z,12.08
2023-03-03T14:24:29.361Z,12.50
2023-03-03T14:27:01.055Z,12.30
2023-03-03T14:29:34.905Z,12.01
2023-03-03T14:32:25.167Z,12.01
2023-03-03T14:35:01.261Z,12.20
2023-03-03T14:37:32.090Z,11.82
2023-03-03T14:40:17.858Z,11.69
2023-03-03T14:42:55.269Z,12.18
2023-03-03T14:45:36.131Z,12.46
2023-03-03T14:48:17.534Z,11.69
2023-03-03T14:50:53.705Z,12.12
2023-03-03T14:53:33.257Z,11.91
2023-03-03T14:56:24.046Z,11.79
2023-03-03T14:58:55.261Z,12.36
2023-03-03T15:01:32.213Z,12.07
2023-03-03T15:04:02.971Z,11.92
2023-03-03T15:06:43.580Z,11.73
2023-03-03T15:09:43.225Z,11.70
2023-03-03T15:12:37.234Z,12.00
2023-03-03T15:15:19.501Z,12.13
2023-03-03T15:18:00.789Z,12.18
2023-03-03T15:20:39.472Z,11.83
2023-03-03T15:23:37.962Z,12.44
2023-03-03T15:26:12.110Z,12.35
2023-03-03T15:28:59.449Z,11.94
2023-03-03T15:31:43.823Z,12.13
2023-03-03T15:34:28.209Z,11.92
2023-03-03T15:37:08.748Z,11.73
2023-03-03T15:39:47.379Z,11.57
2023-03-03T15:42:21.550Z,11.77
2023-03-03T15:45:01.559Z,11.27
2023-03-03T15:48:01.036Z,11.63
2023-03-03T15:50:45.748Z,11.42
2023-03-03T15:53:36.386Z,12.06
2023-03-03T15:56:20.795Z,11.23
2023-03-03T15:59:35.272Z,11.09
2023-03-03T16:02:17.198Z,11.08
2023-03-03T16:04:56.656Z,11.09
2023-03-03T16:07:37.274Z,11.48
2023-03-03T16:10:19.645Z,11.35
2023-03-03T16:12:57.467Z,11.42
2023-03-03T16:15:52.395Z,11.54
2023-03-03T16:18:34.456Z,11.03
2023-03-03T16:21:22.104Z,11.44
2023-03-03T16:23:53.401Z,11.17
2023-03-03T16:26:44.812Z,11.28
2023-03-03T16:29:37.192Z,10.74
2023-03-03T16:32:13.310Z,10.49
2023-03-03T16:34:56.620Z,9.97
2023-03-03T16:37:32.937Z,9.56
2023-03-03T16:40:11.882Z,9.74
2023-03-03T16:42:40.125Z,9.72
2023-03-03T16:45:23.367Z,9.45
2023-03-03T16:48:06.932Z,9.41
2023-03-03T16:50:45.908Z,9.18
2023-03-03T16:53:32.036Z,8.91
2023-03-03T16:56:09.443Z,8.67
2023-03-03T16:58:50.893Z,8.07
2023-03-03T17:08:04.603Z,8.08
2023-03-03T17:10:39.050Z,8.03
2023-03-03T17:13:34.362Z,7.94
2023-03-03T17:16:14.374Z,7.65
2023-03-03T17:19:00.672Z,7.82
2023-03-03T17:21:45.400Z,7.70
2023-03-03T17:24:23.747Z,7.46
2023-03-03T17:27:09.376Z,7.39
2023-03-03T17:29:56.838Z,7.25
2023-03-03T17:32:46.465Z,7.00
2023-03-03T17:35:32.564Z,6.78
2023-03-03T17:38:08.086Z,6.40
2023-03-03T17:40:50.603Z,6.74
2023-03-03T17:43:25.197Z,6.54
2023-03-03T17:45:57.589Z,6.61
2023-03-03T17:49:05.865Z,6.56
2023-03-03T17:52:09.130Z,6.51
2023-03-03T17:55:24.805Z,6.40
2023-03-03T17:58:13.176Z,6.40
2023-03-03T18:00:56.510Z,6.46
2023-03-03T18:03:39.826Z,6.37
2023-03-03T18:06:31.281Z,6.48
2023-03-03T18:09:22.930Z,6.20
2023-03-03T18:12:13.058Z,5.46
2023-03-03T18:15:18.816Z,5.48
2023-03-03T18:18:11.250Z,5.28
2023-03-03T18:21:03.984Z,5.11
2023-03-03T18:23:43.667Z,5.03
2023-03-03T18:26:40.253Z,4.95
2023-03-03T18:29:26.325Z,4.78
2023-03-03T18:32:19.757Z,4.52
2023-03-03T18:34:52.606Z,4.52
2023-03-03T18:37:45.160Z,4.14
2023-03-03T18:40:30.195Z,3.88
2023-03-03T18:42:58.530Z,4.03
2023-03-03T18:45:50.713Z,3.84
2023-03-03T18:48:20.127Z,3.83
2023-03-03T18:50:52.528Z,3.52
2023-03-03T18:53:26.517Z,3.36
2023-03-03T18:55:56.605Z,3.37
2023-03-03T18:58:41.900Z,3.36
2023-03-03T19:01:44.015Z,3.36
2023-03-03T19:04:24.661Z,2.80
2023-03-03T19:07:27.628Z,3.48
2023-03-03T19:10:01.938Z,2.29
2023-03-03T19:12:53.098Z,3.19
2023-03-03T19:15:58.024Z,3.19
2023-03-03T19:18:28.218Z,3.13
2023-03-03T19:21:01.069Z,2.98
2023-03-03T19:23:52.646Z,2.94
2023-03-03T19:26:55.895Z,3.11
2023-03-03T19:30:08.998Z,2.88
2023-03-03T19:33:10.568Z,2.79
2023-03-03T19:35:51.959Z,2.91
2023-03-03T19:38:35.430Z,2.62
2023-03-03T19:41:19.327Z,2.59
2023-03-03T19:44:02.247Z,2.48
2023-03-03T19:46:50.407Z,2.33
2023-03-03T19:49:33.337Z,2.37
2023-03-03T19:52:07.975Z,2.32
2023-03-03T19:54:57.054Z,2.26
2023-03-03T19:57:42.022Z,2.39
2023-03-03T20:00:24.652Z,2.47
2023-03-03T20:03:34.114Z,2.24
2023-03-03T20:06:21.348Z,2.17
2023-03-03T20:09:00.111Z,2.17
2023-03-03T20:12:22.044Z,2.16
2023-03-03T20:14:55.242Z,2.10
2023-03-03T20:17:56.632Z,1.95
2023-03-03T20:20:53.098Z,1.74
2023-03-03T20:23:28.945Z,1.65
2023-03-03T20:26:03.493Z,1.46
2023-03-03T20:28:57.082Z,1.62
2023-03-03T20:31:34.401Z,1.49
2023-03-03T20:34:12.638Z,1.45
2023-03-03T20:36:56.258Z,1.50
2023-03-03T20:39:42.183Z,1.41
2023-03-03T20:42:22.363Z,1.37
2023-03-03T20:45:19.222Z,1.33
2023-03-03T20:48:02.849Z,1.26
2023-03-03T20:50:37.588Z,1.19
2023-03-03T20:53:19.383Z,1.13
2023-03-03T20:56:00.856Z,1.20
2023-03-03T20:58:44.230Z,1.09
2023-03-03T21:01:16.559Z,1.18
2023-03-03T21:03:50.221Z,1.34
2023-03-03T21:06:22.289Z,1.22
2023-03-03T21:08:53.636Z,1.24
2023-03-03T21:11:24.376Z,0.42
2023-03-03T21:13:54.269Z,1.01
2023-03-03T21:16:35.654Z,0.76
2023-03-03T21:19:06.741Z,0.71
2023-03-03T21:21:37.504Z,0.53
2023-03-03T21:24:07.302Z,0.61
2023-03-03T21:26:53.299Z,-0.11
2023-03-03T21:29:26.328Z,0.50
2023-03-03T21:31:58.075Z,0.48
2023-03-03T21:34:34.440Z,0.56
2023-03-03T21:37:06.560Z,0.51
2023-03-03T21:39:36.647Z,0.48
2023-03-03T21:42:07.712Z,0.67
2023-03-03T21:44:40.230Z,0.53
2023-03-03T21:47:12.447Z,0.61
2023-03-03T21:49:43.410Z,0.60
2023-03-03T21:52:12.830Z,0.54
2023-03-03T21:54:41.768Z,0.10
2023-03-03T21:57:10.158Z,0.39
2023-03-03T21:59:38.429Z,0.31
2023-03-03T22:02:07.581Z,0.33
2023-03-03T22:04:38.860Z,0.14
2023-03-03T22:07:07.379Z,0.10
2023-03-03T22:09:36.232Z,0.08
2023-03-03T22:12:04.840Z,0.00
2023-03-03T22:14:33.100Z,0.05
2023-03-03T22:17:01.405Z,0.01
2023-03-03T22:19:29.671Z,-0.14
2023-03-03T22:21:59.205Z,-0.22
2023-03-03T22:24:27.442Z,-0.36
2023-03-03T22:26:55.642Z,-0.03
2023-03-03T22:29:23.919Z,-0.31
2023-03-03T22:31:52.365Z,-0.41
2023-03-03T22:34:20.903Z,-1.11
2023-03-03T22:36:49.157Z,-0.60
2023-03-03T22:39:18.838Z,-0.55
2023-03-03T22:41:47.218Z,-0.60
2023-03-03T22:44:15.440Z,-0.66
2023-03-03T22:46:43.647Z,-0.76
2023-03-03T22:49:12.178Z,-0.88
2023-03-03T22:51:40.474Z,-0.97
2023-03-03T22:54:08.782Z,-1.25
2023-03-03T22:56:38.440Z,-0.98
2023-03-03T22:59:06.674Z,-2.14
2023-03-03T23:01:34.897Z,-1.06
2023-03-03T23:04:06.857Z,-0.96
2023-03-03T23:06:35.978Z,-1.06
2023-03-03T23:09:04.290Z,-1.09
2023-03-03T23:11:33.564Z,-1.04
2023-03-03T23:14:03.108Z,-1.13
2023-03-03T23:16:31.512Z,-1.10
2023-03-03T23:18:59.757Z,-1.21
2023-03-03T23:21:28.100Z,-1.18
2023-03-03T23:23:56.258Z,-1.23
2023-03-03T23:26:24.549Z,-1.26
2023-03-03T23:28:52.710Z,-1.35
2023-03-03T23:31:22.444Z,-1.30
2023-03-03T23:33:50.659Z,-1.34
2023-03-03T23:36:18.857Z,-2.62
2023-03-03T23:38:47.056Z,-1.36
2023-03-03T23:41:15.302Z,-1.42
2023-03-03T23:43:43.494Z,-1.55
2023-03-03T23:46:11.891Z,-1.65
2023-03-03T23:48:41.505Z,-1.47
2023-03-03T23:51:09.765Z,-1.54
2023-03-03T23:53:38.000Z,-1.66
2023-03-03T23:56:07.271Z,-1.66
2023-03-03T23:58:35.620Z,-1.71
